< < Back
Terminal Aerodrome Forecast


Current Version              Previous Versions:   1  2  3  4  5  6  7  8  9  

Terminal Aerodrome Forecast

227
FTUS42 KCHS 091121
TAFCHS
TAF
KCHS 091121Z 0912/1012 27010G15KT P6SM SKC
     FM091400 27013G19KT P6SM FEW060
     FM091600 26021G31KT P6SM BKN060
     FM100000 26013G19KT P6SM BKN070
     FM100600 27012G18KT P6SM SKC=

Latest METAR

067
SAUS80 KWBC 100400 CCB
MTRCHS
METAR KCHS 100356Z 28012G21KT 10SM SCT090 03/M07 A2995 RMK AO2 SLP142
T00331072


USA.gov is the U.S. government's official web portal to all federal, state and local government web resources and services.